sensor_id;sensor_type;location;lat;lon;timestamp;temperature;humidity
17728;DHT22;8984;49.268;12.302;2023-04-29T01:05:22;14.10;99.90
17728;DHT22;8984;49.268;12.302;2023-04-29T01:08:14;14.10;99.90
17728;DHT22;8984;49.268;12.302;2023-04-29T01:11:07;14.10;99.90
17728;DHT22;8984;49.268;12.302;2023-04-29T01:17:17;14.10;99.90
17728;DHT22;8984;49.268;12.302;2023-04-29T01:27:12;14.10;99.90
17728;DHT22;8984;49.268;12.302;2023-04-29T01:30:30;14.00;99.90
17728;DHT22;8984;49.268;12.302;2023-04-29T01:33:55;14.10;99.90
17728;DHT22;8984;49.268;12.302;2023-04-29T01:36:50;14.00;99.90
17728;DHT22;8984;49.268;12.302;2023-04-29T01:40:24;14.10;99.90
17728;DHT22;8984;49.268;12.302;2023-04-29T02:09:51;14.00;99.90
17728;DHT22;8984;49.268;12.302;2023-04-29T02:12:52;14.00;99.90
17728;DHT22;8984;49.268;12.302;2023-04-29T02:16:16;14.00;99.90
17728;DHT22;8984;49.268;12.302;2023-04-29T02:19:25;14.10;99.90
17728;DHT22;8984;49.268;12.302;2023-04-29T02:32:55;14.20;99.90
17728;DHT22;8984;49.268;12.302;2023-04-29T02:35:25;14.20;99.90
17728;DHT22;8984;49.268;12.302;2023-04-29T02:37:52;14.20;99.90
17728;DHT22;8984;49.268;12.302;2023-04-29T02:40:24;14.20;99.90
17728;DHT22;8984;49.268;12.302;2023-04-29T02:42:57;14.20;99.90
17728;DHT22;8984;49.268;12.302;2023-04-29T02:45:34;14.20;99.90
17728;DHT22;8984;49.268;12.302;2023-04-29T02:48:05;14.20;99.90
17728;DHT22;8984;49.268;12.302;2023-04-29T02:50:49;14.20;99.90
17728;DHT22;8984;49.268;12.302;2023-04-29T02:53:17;14.20;99.90
17728;DHT22;8984;49.268;12.302;2023-04-29T02:55:49;14.20;99.90
17728;DHT22;8984;49.268;12.302;2023-04-29T02:58:17;14.30;99.90
17728;DHT22;8984;49.268;12.302;2023-04-29T03:00:50;14.30;99.90
17728;DHT22;8984;49.268;12.302;2023-04-29T03:03:30;14.30;99.90
17728;DHT22;8984;49.268;12.302;2023-04-29T03:06:07;14.30;99.90
17728;DHT22;8984;49.268;12.302;2023-04-29T03:08:36;14.30;99.90
17728;DHT22;8984;49.268;12.302;2023-04-29T03:11:03;14.30;99.90
17728;DHT22;8984;49.268;12.302;2023-04-29T03:13:34;14.40;99.90
17728;DHT22;8984;49.268;12.302;2023-04-29T03:16:13;14.40;99.90
17728;DHT22;8984;49.268;12.302;2023-04-29T03:18:46;14.40;99.90
17728;DHT22;8984;49.268;12.302;2023-04-29T03:21:23;14.40;99.90
17728;DHT22;8984;49.268;12.302;2023-04-29T03:23:55;14.40;99.90
17728;DHT22;8984;49.268;12.302;2023-04-29T03:26:39;14.40;99.90
17728;DHT22;8984;49.268;12.302;2023-04-29T03:29:10;14.40;99.90
17728;DHT22;8984;49.268;12.302;2023-04-29T03:31:41;14.40;99.90
17728;DHT22;8984;49.268;12.302;2023-04-29T03:34:15;14.40;99.90
17728;DHT22;8984;49.268;12.302;2023-04-29T03:36:47;14.40;99.90
17728;DHT22;8984;49.268;12.302;2023-04-29T03:39:17;14.40;99.90
17728;DHT22;8984;49.268;12.302;2023-04-29T03:41:59;14.50;99.90
17728;DHT22;8984;49.268;12.302;2023-04-29T03:44:28;14.40;99.90
17728;DHT22;8984;49.268;12.302;2023-04-29T03:47:06;14.40;99.90
17728;DHT22;8984;49.268;12.302;2023-04-29T03:49:49;14.50;99.90
17728;DHT22;8984;49.268;12.302;2023-04-29T03:52:27;14.40;99.90
17728;DHT22;8984;49.268;12.302;2023-04-29T03:55:00;14.40;99.90
17728;DHT22;8984;49.268;12.302;2023-04-29T03:57:39;14.30;99.90
17728;DHT22;8984;49.268;12.302;2023-04-29T04:00:10;14.30;99.90
17728;DHT22;8984;49.268;12.302;2023-04-29T04:02:44;14.20;99.90
17728;DHT22;8984;49.268;12.302;2023-04-29T04:05:15;14.20;99.90
17728;DHT22;8984;49.268;12.302;2023-04-29T04:07:51;14.10;99.90
17728;DHT22;8984;49.268;12.302;2023-04-29T04:10:24;14.10;99.90
17728;DHT22;8984;49.268;12.302;2023-04-29T04:12:54;14.10;99.90
17728;DHT22;8984;49.268;12.302;2023-04-29T04:15:23;14.10;99.90
17728;DHT22;8984;49.268;12.302;2023-04-29T04:18:07;14.10;99.90
17728;DHT22;8984;49.268;12.302;2023-04-29T04:20:47;14.10;99.90
17728;DHT22;8984;49.268;12.302;2023-04-29T04:23:17;14.10;99.90
17728;DHT22;8984;49.268;12.302;2023-04-29T04:25:45;14.30;99.90
17728;DHT22;8984;49.268;12.302;2023-04-29T04:28:24;14.10;99.90
17728;DHT22;8984;49.268;12.302;2023-04-29T04:30:57;14.20;99.90
17728;DHT22;8984;49.268;12.302;2023-04-29T04:33:31;14.20;99.90
17728;DHT22;8984;49.268;12.302;2023-04-29T04:39:08;14.20;99.90
17728;DHT22;8984;49.268;12.302;2023-04-29T04:41:50;14.20;99.90
17728;DHT22;8984;49.268;12.302;2023-04-29T04:44:19;14.20;99.90
17728;DHT22;8984;49.268;12.302;2023-04-29T04:46:51;14.20;99.90
17728;DHT22;8984;49.268;12.302;2023-04-29T04:49:27;14.20;99.90
17728;DHT22;8984;49.268;12.302;2023-04-29T04:52:07;14.20;99.90
17728;DHT22;8984;49.268;12.302;2023-04-29T04:54:34;14.30;99.90
17728;DHT22;8984;49.268;12.302;2023-04-29T04:57:06;14.30;99.90
17728;DHT22;8984;49.268;12.302;2023-04-29T04:59:41;14.30;99.90
17728;DHT22;8984;49.268;12.302;2023-04-29T05:02:30;14.40;99.90
17728;DHT22;8984;49.268;12.302;2023-04-29T05:04:58;14.40;99.90
17728;DHT22;8984;49.268;12.302;2023-04-29T05:07:35;14.40;99.90
17728;DHT22;8984;49.268;12.302;2023-04-29T05:10:13;14.40;99.90
17728;DHT22;8984;49.268;12.302;2023-04-29T05:12:41;14.40;99.90
17728;DHT22;8984;49.268;12.302;2023-04-29T05:15:10;14.50;99.90
17728;DHT22;8984;49.268;12.302;2023-04-29T05:17:42;14.50;99.90
17728;DHT22;8984;49.268;12.302;2023-04-29T05:20:17;14.50;99.90
17728;DHT22;8984;49.268;12.302;2023-04-29T05:22:52;14.40;99.90
17728;DHT22;8984;49.268;12.302;2023-04-29T05:25:20;14.50;99.90
17728;DHT22;8984;49.268;12.302;2023-04-29T05:27:51;14.50;99.90
17728;DHT22;8984;49.268;12.302;2023-04-29T05:30:20;14.60;99.90
17728;DHT22;8984;49.268;12.302;2023-04-29T05:32:57;14.70;99.90
17728;DHT22;8984;49.268;12.302;2023-04-29T05:35:26;14.80;99.90
17728;DHT22;8984;49.268;12.302;2023-04-29T05:37:58;14.90;99.90
17728;DHT22;8984;49.268;12.302;2023-04-29T05:40:28;14.90;99.90
17728;DHT22;8984;49.268;12.302;2023-04-29T05:43:04;15.00;99.90
17728;DHT22;8984;49.268;12.302;2023-04-29T05:45:31;15.00;99.90
17728;DHT22;8984;49.268;12.302;2023-04-29T05:48:14;15.10;99.90
17728;DHT22;8984;49.268;12.302;2023-04-29T05:50:51;15.10;99.90
17728;DHT22;8984;49.268;12.302;2023-04-29T05:53:31;15.10;99.90
17728;DHT22;8984;49.268;12.302;2023-04-29T05:56:01;15.30;99.90
17728;DHT22;8984;49.268;12.302;2023-04-29T05:58:32;15.30;99.90
17728;DHT22;8984;49.268;12.302;2023-04-29T06:01:07;15.40;99.90
17728;DHT22;8984;49.268;12.302;2023-04-29T06:03:45;15.50;99.90
17728;DHT22;8984;49.268;12.302;2023-04-29T06:06:16;15.50;99.90
17728;DHT22;8984;49.268;12.302;2023-04-29T06:08:46;15.60;99.90
17728;DHT22;8984;49.268;12.302;2023-04-29T06:11:14;15.80;99.90
17728;DHT22;8984;49.268;12.302;2023-04-29T06:13:44;16.00;99.90
17728;DHT22;8984;49.268;12.302;2023-04-29T06:16:19;16.10;99.90
17728;DHT22;8984;49.268;12.302;2023-04-29T06:18:47;16.10;99.90
17728;DHT22;8984;49.268;12.302;2023-04-29T06:21:20;16.20;99.90
17728;DHT22;8984;49.268;12.302;2023-04-29T06:24:09;16.30;99.90
17728;DHT22;8984;49.268;12.302;2023-04-29T06:26:36;16.30;99.90
17728;DHT22;8984;49.268;12.302;2023-04-29T06:29:08;16.40;99.90
17728;DHT22;8984;49.268;12.302;2023-04-29T06:31:39;16.60;99.90
17728;DHT22;8984;49.268;12.302;2023-04-29T06:34:18;16.60;99.90
17728;DHT22;8984;49.268;12.302;2023-04-29T06:36:50;16.50;99.90
17728;DHT22;8984;49.268;12.302;2023-04-29T06:39:19;16.50;99.90
17728;DHT22;8984;49.268;12.302;2023-04-29T06:41:51;16.70;99.90
17728;DHT22;8984;49.268;12.302;2023-04-29T06:44:28;16.70;99.90
17728;DHT22;8984;49.268;12.302;2023-04-29T06:46:56;16.70;99.90
17728;DHT22;8984;49.268;12.302;2023-04-29T06:49:24;16.70;99.90
17728;DHT22;8984;49.268;12.302;2023-04-29T06:51:56;16.70;99.90
17728;DHT22;8984;49.268;12.302;2023-04-29T06:54:32;16.70;99.90
17728;DHT22;8984;49.268;12.302;2023-04-29T06:57:05;16.60;99.90
17728;DHT22;8984;49.268;12.302;2023-04-29T06:59:47;16.60;99.90
17728;DHT22;8984;49.268;12.302;2023-04-29T07:02:33;16.70;99.90
17728;DHT22;8984;49.268;12.302;2023-04-29T07:05:05;16.60;99.90
17728;DHT22;8984;49.268;12.302;2023-04-29T07:07:34;16.40;99.90
17728;DHT22;8984;49.268;12.302;2023-04-29T07:10:16;16.50;99.90
17728;DHT22;8984;49.268;12.302;2023-04-29T07:12:48;16.40;99.90
17728;DHT22;8984;49.268;12.302;2023-04-29T07:15:27;16.60;99.90
17728;DHT22;8984;49.268;12.302;2023-04-29T07:17:56;16.80;99.90
17728;DHT22;8984;49.268;12.302;2023-04-29T07:20:26;16.90;99.90
17728;DHT22;8984;49.268;12.302;2023-04-29T07:22:56;17.10;99.90
17728;DHT22;8984;49.268;12.302;2023-04-29T07:25:25;17.30;99.90
17728;DHT22;8984;49.268;12.302;2023-04-29T07:27:59;17.70;99.90
17728;DHT22;8984;49.268;12.302;2023-04-29T07:30:29;18.00;99.90
17728;DHT22;8984;49.268;12.302;2023-04-29T07:33:04;18.20;99.90
17728;DHT22;8984;49.268;12.302;2023-04-29T07:35:35;18.20;99.90
17728;DHT22;8984;49.268;12.302;2023-04-29T07:38:08;18.40;99.90
17728;DHT22;8984;49.268;12.302;2023-04-29T07:40:44;18.50;99.90
17728;DHT22;8984;49.268;12.302;2023-04-29T07:43:11;18.40;99.90
17728;DHT22;8984;49.268;12.302;2023-04-29T07:45:41;18.50;99.90
17728;DHT22;8984;49.268;12.302;2023-04-29T07:48:15;18.70;99.90
17728;DHT22;8984;49.268;12.302;2023-04-29T07:51:04;18.80;99.90
17728;DHT22;8984;49.268;12.302;2023-04-29T07:53:44;19.00;99.90
17728;DHT22;8984;49.268;12.302;2023-04-29T07:56:18;19.20;99.90
17728;DHT22;8984;49.268;12.302;2023-04-29T07:58:48;18.80;99.90
17728;DHT22;8984;49.268;12.302;2023-04-29T08:01:29;18.90;99.90
17728;DHT22;8984;49.268;12.302;2023-04-29T08:04:00;19.10;99.90
17728;DHT22;8984;49.268;12.302;2023-04-29T08:06:54;19.30;99.90
17728;DHT22;8984;49.268;12.302;2023-04-29T08:09:24;19.50;99.90
17728;DHT22;8984;49.268;12.302;2023-04-29T08:12:03;19.50;99.90
17728;DHT22;8984;49.268;12.302;2023-04-29T08:14:32;19.60;99.90
17728;DHT22;8984;49.268;12.302;2023-04-29T08:17:11;19.50;99.90
17728;DHT22;8984;49.268;12.302;2023-04-29T08:19:41;19.50;99.90
17728;DHT22;8984;49.268;12.302;2023-04-29T08:22:10;19.30;99.90
17728;DHT22;8984;49.268;12.302;2023-04-29T08:24:45;19.00;99.90
17728;DHT22;8984;49.268;12.302;2023-04-29T08:27:19;19.10;99.90
17728;DHT22;8984;49.268;12.302;2023-04-29T08:29:52;18.90;99.90
17728;DHT22;8984;49.268;12.302;2023-04-29T08:32:22;19.10;99.90
17728;DHT22;8984;49.268;12.302;2023-04-29T08:34:54;19.20;99.90
17728;DHT22;8984;49.268;12.302;2023-04-29T08:37:36;19.10;99.90
17728;DHT22;8984;49.268;12.302;2023-04-29T08:40:06;19.00;99.90
17728;DHT22;8984;49.268;12.302;2023-04-29T08:42:47;19.10;99.90
17728;DHT22;8984;49.268;12.302;2023-04-29T08:45:23;19.00;99.90
17728;DHT22;8984;49.268;12.302;2023-04-29T08:47:57;19.00;99.90
17728;DHT22;8984;49.268;12.302;2023-04-29T08:50:43;18.80;99.90
17728;DHT22;8984;49.268;12.302;2023-04-29T08:53:30;18.70;99.90
17728;DHT22;8984;49.268;12.302;2023-04-29T08:56:12;18.60;99.90
17728;DHT22;8984;49.268;12.302;2023-04-29T08:58:55;18.60;99.90
17728;DHT22;8984;49.268;12.302;2023-04-29T09:01:26;18.50;99.90
17728;DHT22;8984;49.268;12.302;2023-04-29T09:04:23;18.50;99.90
17728;DHT22;8984;49.268;12.302;2023-04-29T09:07:01;18.30;99.90
17728;DHT22;8984;49.268;12.302;2023-04-29T09:09:40;18.20;99.90
17728;DHT22;8984;49.268;12.302;2023-04-29T09:12:10;18.00;99.90
17728;DHT22;8984;49.268;12.302;2023-04-29T09:14:50;18.00;99.90
17728;DHT22;8984;49.268;12.302;2023-04-29T09:30:00;17.60;99.90
17728;DHT22;8984;49.268;12.302;2023-04-29T09:32:33;17.80;99.90
17728;DHT22;8984;49.268;12.302;2023-04-29T09:35:23;17.80;99.90
17728;DHT22;8984;49.268;12.302;2023-04-29T09:38:21;17.90;99.90
17728;DHT22;8984;49.268;12.302;2023-04-29T09:41:16;18.10;99.90
17728;DHT22;8984;49.268;12.302;2023-04-29T09:44:02;18.20;99.90
17728;DHT22;8984;49.268;12.302;2023-04-29T09:47:00;18.30;99.90
17728;DHT22;8984;49.268;12.302;2023-04-29T09:49:33;18.50;99.90
17728;DHT22;8984;49.268;12.302;2023-04-29T09:52:18;18.70;99.90
17728;DHT22;8984;49.268;12.302;2023-04-29T09:54:50;18.80;99.90
17728;DHT22;8984;49.268;12.302;2023-04-29T09:57:44;18.70;99.90
17728;DHT22;8984;49.268;12.302;2023-04-29T10:00:33;18.50;99.90
17728;DHT22;8984;49.268;12.302;2023-04-29T10:03:35;18.50;99.90
17728;DHT22;8984;49.268;12.302;2023-04-29T10:06:21;18.50;99.90
17728;DHT22;8984;49.268;12.302;2023-04-29T10:09:12;18.20;99.90
17728;DHT22;8984;49.268;12.302;2023-04-29T10:11:51;17.90;99.90
17728;DHT22;8984;49.268;12.302;2023-04-29T10:14:56;17.80;99.90
17728;DHT22;8984;49.268;12.302;2023-04-29T10:18:00;18.00;99.90
17728;DHT22;8984;49.268;12.302;2023-04-29T10:24:03;17.90;99.90
17728;DHT22;8984;49.268;12.302;2023-04-29T10:26:34;18.00;99.90
17728;DHT22;8984;49.268;12.302;2023-04-29T10:29:24;18.20;99.90
17728;DHT22;8984;49.268;12.302;2023-04-29T10:31:56;18.20;99.90
17728;DHT22;8984;49.268;12.302;2023-04-29T10:34:26;18.30;99.90
17728;DHT22;8984;49.268;12.302;2023-04-29T10:36:59;18.40;99.90
17728;DHT22;8984;49.268;12.302;2023-04-29T10:39:39;18.50;99.90
17728;DHT22;8984;49.268;12.302;2023-04-29T10:42:50;18.60;99.90
17728;DHT22;8984;49.268;12.302;2023-04-29T10:45:22;18.60;99.90
17728;DHT22;8984;49.268;12.302;2023-04-29T10:48:20;18.60;99.90
17728;DHT22;8984;49.268;12.302;2023-04-29T10:51:01;18.70;99.90
17728;DHT22;8984;49.268;12.302;2023-04-29T10:53:28;18.80;99.90
17728;DHT22;8984;49.268;12.302;2023-04-29T10:55:58;18.70;99.90
17728;DHT22;8984;49.268;12.302;2023-04-29T10:58:40;19.00;99.90
17728;DHT22;8984;49.268;12.302;2023-04-29T11:01:09;18.90;99.90
17728;DHT22;8984;49.268;12.302;2023-04-29T11:03:47;19.10;99.90
17728;DHT22;8984;49.268;12.302;2023-04-29T11:06:15;19.10;99.90
17728;DHT22;8984;49.268;12.302;2023-04-29T11:08:42;19.30;99.90
17728;DHT22;8984;49.268;12.302;2023-04-29T11:11:09;19.20;99.90
17728;DHT22;8984;49.268;12.302;2023-04-29T11:13:40;18.90;99.90
17728;DHT22;8984;49.268;12.302;2023-04-29T11:16:11;19.00;99.90
17728;DHT22;8984;49.268;12.302;2023-04-29T11:19:03;18.90;99.90
17728;DHT22;8984;49.268;12.302;2023-04-29T11:21:30;18.40;99.90
17728;DHT22;8984;49.268;12.302;2023-04-29T11:23:57;18.60;99.90
17728;DHT22;8984;49.268;12.302;2023-04-29T11:26:24;18.70;99.90
17728;DHT22;8984;49.268;12.302;2023-04-29T11:28:53;18.60;99.90
17728;DHT22;8984;49.268;12.302;2023-04-29T11:31:25;18.40;99.90
17728;DHT22;8984;49.268;12.302;2023-04-29T11:33:53;18.30;99.90
17728;DHT22;8984;49.268;12.302;2023-04-29T11:36:20;18.10;99.90
17728;DHT22;8984;49.268;12.302;2023-04-29T11:38:47;17.90;99.90
17728;DHT22;8984;49.268;12.302;2023-04-29T11:41:14;18.10;99.90
17728;DHT22;8984;49.268;12.302;2023-04-29T11:43:41;18.30;99.90
17728;DHT22;8984;49.268;12.302;2023-04-29T11:46:13;18.20;99.90
17728;DHT22;8984;49.268;12.302;2023-04-29T11:48:45;18.50;99.90
17728;DHT22;8984;49.268;12.302;2023-04-29T11:51:13;18.80;99.90
17728;DHT22;8984;49.268;12.302;2023-04-29T11:53:40;18.80;99.90
17728;DHT22;8984;49.268;12.302;2023-04-29T11:56:07;19.00;99.90
17728;DHT22;8984;49.268;12.302;2023-04-29T11:58:34;19.10;99.90
17728;DHT22;8984;49.268;12.302;2023-04-29T12:01:02;19.40;99.90
17728;DHT22;8984;49.268;12.302;2023-04-29T12:03:31;19.50;99.90
17728;DHT22;8984;49.268;12.302;2023-04-29T12:05:58;19.50;99.90
17728;DHT22;8984;49.268;12.302;2023-04-29T12:08:27;19.50;99.90
17728;DHT22;8984;49.268;12.302;2023-04-29T12:10:55;19.60;99.90
17728;DHT22;8984;49.268;12.302;2023-04-29T12:13:23;19.40;99.90
17728;DHT22;8984;49.268;12.302;2023-04-29T12:15:51;19.30;99.90
17728;DHT22;8984;49.268;12.302;2023-04-29T12:18:19;19.90;99.90
17728;DHT22;8984;49.268;12.302;2023-04-29T12:20:57;19.70;99.90
17728;DHT22;8984;49.268;12.302;2023-04-29T12:23:24;19.50;99.90
17728;DHT22;8984;49.268;12.302;2023-04-29T12:28:41;19.50;99.90
17728;DHT22;8984;49.268;12.302;2023-04-29T12:33:44;19.50;99.90
17728;DHT22;8984;49.268;12.302;2023-04-29T12:36:17;19.70;99.90
17728;DHT22;8984;49.268;12.302;2023-04-29T12:38:46;19.70;99.90
17728;DHT22;8984;49.268;12.302;2023-04-29T12:41:12;19.70;99.90
17728;DHT22;8984;49.268;12.302;2023-04-29T12:43:41;19.90;99.90
17728;DHT22;8984;49.268;12.302;2023-04-29T12:46:09;20.00;99.90
17728;DHT22;8984;49.268;12.302;2023-04-29T12:48:38;19.80;99.90
17728;DHT22;8984;49.268;12.302;2023-04-29T12:51:21;19.90;99.90
17728;DHT22;8984;49.268;12.302;2023-04-29T12:53:48;19.90;99.90
17728;DHT22;8984;49.268;12.302;2023-04-29T12:56:17;19.90;99.90
17728;DHT22;8984;49.268;12.302;2023-04-29T12:58:44;20.30;99.90
17728;DHT22;8984;49.268;12.302;2023-04-29T13:01:10;20.50;99.90
17728;DHT22;8984;49.268;12.302;2023-04-29T13:03:38;20.60;99.90
17728;DHT22;8984;49.268;12.302;2023-04-29T13:06:05;20.80;99.90
17728;DHT22;8984;49.268;12.302;2023-04-29T13:08:34;21.00;99.90
17728;DHT22;8984;49.268;12.302;2023-04-29T13:11:02;21.00;99.90
17728;DHT22;8984;49.268;12.302;2023-04-29T13:13:29;20.60;99.90
17728;DHT22;8984;49.268;12.302;2023-04-29T13:15:56;20.50;99.90
17728;DHT22;8984;49.268;12.302;2023-04-29T13:18:22;20.50;99.90
17728;DHT22;8984;49.268;12.302;2023-04-29T13:20:49;20.30;99.90
17728;DHT22;8984;49.268;12.302;2023-04-29T13:23:16;19.80;99.90
17728;DHT22;8984;49.268;12.302;2023-04-29T13:25:44;19.50;99.90
17728;DHT22;8984;49.268;12.302;2023-04-29T13:28:11;19.40;99.90
17728;DHT22;8984;49.268;12.302;2023-04-29T13:30:38;19.40;99.90
17728;DHT22;8984;49.268;12.302;2023-04-29T13:33:05;19.30;99.90
17728;DHT22;8984;49.268;12.302;2023-04-29T13:35:31;19.20;99.90
17728;DHT22;8984;49.268;12.302;2023-04-29T13:38:00;19.00;99.90
17728;DHT22;8984;49.268;12.302;2023-04-29T13:40:27;19.20;99.90
17728;DHT22;8984;49.268;12.302;2023-04-29T13:42:55;19.30;99.90
17728;DHT22;8984;49.268;12.302;2023-04-29T13:45:22;19.20;99.90
17728;DHT22;8984;49.268;12.302;2023-04-29T13:47:49;19.40;99.90
17728;DHT22;8984;49.268;12.302;2023-04-29T13:50:16;19.10;99.90
17728;DHT22;8984;49.268;12.302;2023-04-29T13:52:42;18.70;99.90
17728;DHT22;8984;49.268;12.302;2023-04-29T13:55:09;18.30;99.90
17728;DHT22;8984;49.268;12.302;2023-04-29T13:57:36;18.50;99.90
17728;DHT22;8984;49.268;12.302;2023-04-29T14:00:06;18.30;99.90
17728;DHT22;8984;49.268;12.302;2023-04-29T14:02:33;18.20;99.90
17728;DHT22;8984;49.268;12.302;2023-04-29T14:05:00;18.20;99.90
17728;DHT22;8984;49.268;12.302;2023-04-29T14:07:27;18.00;99.90
17728;DHT22;8984;49.268;12.302;2023-04-29T14:09:54;18.20;99.90
17728;DHT22;8984;49.268;12.302;2023-04-29T14:12:21;18.00;99.90
17728;DHT22;8984;49.268;12.302;2023-04-29T14:14:47;18.20;99.90
17728;DHT22;8984;49.268;12.302;2023-04-29T14:17:16;18.30;99.90
17728;DHT22;8984;49.268;12.302;2023-04-29T14:19:43;18.30;99.90
17728;DHT22;8984;49.268;12.302;2023-04-29T14:22:09;18.10;99.90
17728;DHT22;8984;49.268;12.302;2023-04-29T14:24:36;18.10;99.90
17728;DHT22;8984;49.268;12.302;2023-04-29T14:27:04;17.70;99.90
17728;DHT22;8984;49.268;12.302;2023-04-29T14:29:31;17.90;99.90
17728;DHT22;8984;49.268;12.302;2023-04-29T14:31:58;18.10;99.90
17728;DHT22;8984;49.268;12.302;2023-04-29T14:34:26;18.30;99.90
17728;DHT22;8984;49.268;12.302;2023-04-29T14:36:53;18.30;99.90
17728;DHT22;8984;49.268;12.302;2023-04-29T14:39:23;17.90;99.90
17728;DHT22;8984;49.268;12.302;2023-04-29T14:41:50;17.90;99.90
17728;DHT22;8984;49.268;12.302;2023-04-29T14:44:17;18.30;99.90
17728;DHT22;8984;49.268;12.302;2023-04-29T14:46:44;18.40;99.90
17728;DHT22;8984;49.268;12.302;2023-04-29T14:49:10;18.30;99.90
17728;DHT22;8984;49.268;12.302;2023-04-29T14:51:39;18.30;99.90
17728;DHT22;8984;49.268;12.302;2023-04-29T14:54:06;18.30;99.90
17728;DHT22;8984;49.268;12.302;2023-04-29T14:56:34;18.40;99.90
17728;DHT22;8984;49.268;12.302;2023-04-29T14:59:01;18.10;99.90
17728;DHT22;8984;49.268;12.302;2023-04-29T15:01:28;18.40;99.90
17728;DHT22;8984;49.268;12.302;2023-04-29T15:03:54;18.10;99.90
17728;DHT22;8984;49.268;12.302;2023-04-29T15:06:21;18.10;99.90
17728;DHT22;8984;49.268;12.302;2023-04-29T15:08:49;18.20;99.90
17728;DHT22;8984;49.268;12.302;2023-04-29T15:11:16;18.30;99.90
17728;DHT22;8984;49.268;12.302;2023-04-29T15:13:43;18.40;99.90
17728;DHT22;8984;49.268;12.302;2023-04-29T15:16:10;18.40;99.90
17728;DHT22;8984;49.268;12.302;2023-04-29T15:18:36;18.50;99.90
17728;DHT22;8984;49.268;12.302;2023-04-29T15:21:03;18.50;99.90
17728;DHT22;8984;49.268;12.302;2023-04-29T15:23:30;18.50;99.90
17728;DHT22;8984;49.268;12.302;2023-04-29T15:25:58;18.80;99.90
17728;DHT22;8984;49.268;12.302;2023-04-29T15:28:25;18.90;99.90
17728;DHT22;8984;49.268;12.302;2023-04-29T15:30:52;18.80;99.90
17728;DHT22;8984;49.268;12.302;2023-04-29T15:33:19;18.80;99.90
17728;DHT22;8984;49.268;12.302;2023-04-29T15:35:46;18.70;99.90
17728;DHT22;8984;49.268;12.302;2023-04-29T15:38:13;18.50;99.90
17728;DHT22;8984;49.268;12.302;2023-04-29T15:40:40;18.30;99.90
17728;DHT22;8984;49.268;12.302;2023-04-29T15:43:08;18.30;99.90
17728;DHT22;8984;49.268;12.302;2023-04-29T15:45:35;18.00;99.90
17728;DHT22;8984;49.268;12.302;2023-04-29T15:48:01;18.20;99.90
17728;DHT22;8984;49.268;12.302;2023-04-29T15:50:28;18.10;99.90
17728;DHT22;8984;49.268;12.302;2023-04-29T15:52:55;18.00;99.90
17728;DHT22;8984;49.268;12.302;2023-04-29T15:55:23;18.10;99.90
17728;DHT22;8984;49.268;12.302;2023-04-29T15:57:50;18.00;99.90
17728;DHT22;8984;49.268;12.302;2023-04-29T16:00:18;17.90;99.90
17728;DHT22;8984;49.268;12.302;2023-04-29T16:02:45;18.00;99.90
17728;DHT22;8984;49.268;12.302;2023-04-29T16:05:12;18.10;99.90
17728;DHT22;8984;49.268;12.302;2023-04-29T16:07:38;18.00;99.90
17728;DHT22;8984;49.268;12.302;2023-04-29T16:10:06;18.10;99.90
17728;DHT22;8984;49.268;12.302;2023-04-29T16:12:34;18.00;99.90
17728;DHT22;8984;49.268;12.302;2023-04-29T16:15:00;18.10;99.90
17728;DHT22;8984;49.268;12.302;2023-04-29T16:17:30;18.30;99.90
17728;DHT22;8984;49.268;12.302;2023-04-29T16:19:57;18.40;99.90
17728;DHT22;8984;49.268;12.302;2023-04-29T16:22:24;18.20;99.90
17728;DHT22;8984;49.268;12.302;2023-04-29T16:24:52;18.20;99.90
17728;DHT22;8984;49.268;12.302;2023-04-29T16:27:19;18.40;99.90
17728;DHT22;8984;49.268;12.302;2023-04-29T16:29:46;18.70;99.90
17728;DHT22;8984;49.268;12.302;2023-04-29T16:32:13;18.60;99.90
17728;DHT22;8984;49.268;12.302;2023-04-29T16:34:41;18.70;99.90
17728;DHT22;8984;49.268;12.302;2023-04-29T16:37:08;18.80;99.90
17728;DHT22;8984;49.268;12.302;2023-04-29T16:39:37;18.90;99.90
17728;DHT22;8984;49.268;12.302;2023-04-29T16:42:03;18.80;99.90
17728;DHT22;8984;49.268;12.302;2023-04-29T16:44:30;18.70;99.90
17728;DHT22;8984;49.268;12.302;2023-04-29T16:46:58;18.80;99.90
17728;DHT22;8984;49.268;12.302;2023-04-29T16:49:25;18.50;99.90
17728;DHT22;8984;49.268;12.302;2023-04-29T16:51:53;18.50;99.90
17728;DHT22;8984;49.268;12.302;2023-04-29T16:54:20;18.60;99.90
17728;DHT22;8984;49.268;12.302;2023-04-29T16:56:47;18.60;99.90
17728;DHT22;8984;49.268;12.302;2023-04-29T16:59:14;18.30;99.90
17728;DHT22;8984;49.268;12.302;2023-04-29T17:01:41;18.30;99.90
17728;DHT22;8984;49.268;12.302;2023-04-29T17:04:08;18.30;99.90
17728;DHT22;8984;49.268;12.302;2023-04-29T17:06:35;18.20;99.90
17728;DHT22;8984;49.268;12.302;2023-04-29T17:09:06;18.00;99.90
17728;DHT22;8984;49.268;12.302;2023-04-29T17:11:34;18.00;99.90
17728;DHT22;8984;49.268;12.302;2023-04-29T17:14:00;17.90;99.90
17728;DHT22;8984;49.268;12.302;2023-04-29T17:16:27;17.90;99.90
17728;DHT22;8984;49.268;12.302;2023-04-29T17:18:55;17.70;99.90
17728;DHT22;8984;49.268;12.302;2023-04-29T17:21:22;17.50;99.90
17728;DHT22;8984;49.268;12.302;2023-04-29T17:23:50;17.00;99.90
17728;DHT22;8984;49.268;12.302;2023-04-29T17:26:19;17.00;99.90
17728;DHT22;8984;49.268;12.302;2023-04-29T17:28:46;16.70;99.90
17728;DHT22;8984;49.268;12.302;2023-04-29T17:31:13;16.90;99.90
17728;DHT22;8984;49.268;12.302;2023-04-29T17:33:40;16.40;99.90
17728;DHT22;8984;49.268;12.302;2023-04-29T17:36:19;16.40;99.90
17728;DHT22;8984;49.268;12.302;2023-04-29T17:38:45;16.20;99.90
17728;DHT22;8984;49.268;12.302;2023-04-29T17:41:12;16.20;99.90
17728;DHT22;8984;49.268;12.302;2023-04-29T17:43:42;16.10;99.90
17728;DHT22;8984;49.268;12.302;2023-04-29T17:46:08;15.90;99.90
17728;DHT22;8984;49.268;12.302;2023-04-29T17:48:35;16.00;99.90
17728;DHT22;8984;49.268;12.302;2023-04-29T17:51:02;15.90;99.90
17728;DHT22;8984;49.268;12.302;2023-04-29T17:53:29;15.80;99.90
17728;DHT22;8984;49.268;12.302;2023-04-29T17:55:57;15.90;99.90
17728;DHT22;8984;49.268;12.302;2023-04-29T17:58:24;15.90;99.90
17728;DHT22;8984;49.268;12.302;2023-04-29T18:00:54;15.90;99.90
17728;DHT22;8984;49.268;12.302;2023-04-29T18:03:21;15.90;99.90
17728;DHT22;8984;49.268;12.302;2023-04-29T18:05:48;15.70;99.90
17728;DHT22;8984;49.268;12.302;2023-04-29T18:08:15;15.80;99.90
17728;DHT22;8984;49.268;12.302;2023-04-29T18:10:42;15.80;99.90
17728;DHT22;8984;49.268;12.302;2023-04-29T18:13:09;15.90;99.90
17728;DHT22;8984;49.268;12.302;2023-04-29T18:15:35;15.70;99.90
17728;DHT22;8984;49.268;12.302;2023-04-29T18:18:04;15.60;99.90
17728;DHT22;8984;49.268;12.302;2023-04-29T18:20:30;15.30;99.90
17728;DHT22;8984;49.268;12.302;2023-04-29T18:22:57;15.30;99.90